Time;durP1;ratioP1;P1;durP2;ratioP2;P2;SDS_P1;SDS_P2;PMS_P1;PMS_P2;Temp;Humidity;BMP_temperature;BMP_pressure;BME280_temperature;BME280_humidity;BME280_pressure;Samples;Min_cycle;Max_cycle;Signal;HPM_P1;HPM_P2
2023/01/20 00:01:24;;;;;;;0.10;0.10;;;0.30;99.90;;;;;;5059999;28;20264;-81
2023/01/20 00:03:52;;;;;;;0.10;0.10;;;0.20;99.90;;;;;;5060929;28;20185;-82
2023/01/20 00:06:18;;;;;;;0.00;0.00;;;0.20;99.90;;;;;;5060226;28;20282;-80
2023/01/20 00:08:44;;;;;;;0.10;0.10;;;0.10;99.90;;;;;;5058948;28;20278;-80
2023/01/20 00:11:11;;;;;;;0.10;0.10;;;0.10;99.90;;;;;;5061585;28;20861;-81
2023/01/20 00:13:38;;;;;;;0.10;0.10;;;0.20;99.90;;;;;;5059048;28;20290;-81
2023/01/20 00:16:05;;;;;;;0.10;0.10;;;0.20;99.90;;;;;;5060369;28;20174;-80
2023/01/20 00:18:31;;;;;;;0.10;0.10;;;0.10;99.90;;;;;;5058919;28;20208;-81
2023/01/20 00:21:10;;;;;;;0.00;0.00;;;0.10;99.90;;;;;;5058787;28;21010;-81
2023/01/20 00:23:35;;;;;;;0.10;0.10;;;0.00;99.90;;;;;;5060476;28;20182;-82
2023/01/20 00:26:12;;;;;;;0.10;0.10;;;0.00;99.90;;;;;;5062978;28;20183;-81
2023/01/20 00:28:38;;;;;;;0.10;0.10;;;0.00;99.90;;;;;;5062376;28;20209;-82
2023/01/20 00:31:16;;;;;;;0.00;0.00;;;0.10;99.90;;;;;;5064078;28;20222;-80
2023/01/20 00:33:42;;;;;;;0.10;0.10;;;0.10;99.90;;;;;;5059863;28;20189;-81
2023/01/20 00:36:08;;;;;;;0.10;0.10;;;0.20;99.90;;;;;;5061925;28;20192;-81
2023/01/20 00:38:34;;;;;;;0.00;0.00;;;0.10;99.90;;;;;;5063634;28;20217;-81
2023/01/20 00:40:59;;;;;;;0.10;0.10;;;0.20;99.90;;;;;;5062895;28;20648;-81
2023/01/20 00:43:25;;;;;;;0.10;0.10;;;0.10;99.90;;;;;;5061773;28;20202;-81
2023/01/20 00:45:50;;;;;;;0.10;0.10;;;0.20;99.90;;;;;;5060945;28;20185;-81
2023/01/20 00:48:16;;;;;;;0.10;0.10;;;0.20;99.90;;;;;;5059772;28;20245;-82
2023/01/20 00:50:41;;;;;;;0.10;0.10;;;0.20;99.90;;;;;;5061676;28;20258;-81
2023/01/20 00:53:07;;;;;;;0.10;0.10;;;0.20;99.90;;;;;;5061600;28;20197;-82
2023/01/20 00:55:32;;;;;;;0.10;0.10;;;0.10;99.90;;;;;;5061506;28;20213;-81
2023/01/20 00:57:58;;;;;;;0.10;0.10;;;0.10;99.90;;;;;;5056599;28;20256;-81
2023/01/20 01:00:23;;;;;;;0.10;0.10;;;0.10;99.90;;;;;;5059890;28;20201;-81
2023/01/20 01:02:49;;;;;;;0.10;0.10;;;0.10;99.90;;;;;;5061019;28;20185;-81
2023/01/20 01:05:14;;;;;;;0.10;0.10;;;0.10;99.90;;;;;;5058006;28;20194;-81
2023/01/20 01:07:40;;;;;;;0.10;0.10;;;0.10;99.90;;;;;;5060551;28;20226;-81
2023/01/20 01:10:06;;;;;;;0.10;0.10;;;0.00;99.90;;;;;;5059096;28;20212;-81
2023/01/20 01:12:31;;;;;;;0.10;0.10;;;-0.10;99.90;;;;;;5061389;28;20236;-81
2023/01/20 01:14:57;;;;;;;0.10;0.10;;;-0.40;99.90;;;;;;5058298;28;20581;-81
2023/01/20 01:17:22;;;;;;;0.10;0.10;;;-0.50;99.90;;;;;;5059698;28;20236;-81
2023/01/20 01:19:52;;;;;;;0.10;0.10;;;-0.50;99.90;;;;;;5057953;28;21282;-81
2023/01/20 01:22:18;;;;;;;0.10;0.10;;;-0.50;99.90;;;;;;5059352;28;20196;-81
2023/01/20 01:24:44;;;;;;;0.10;0.10;;;-0.40;99.90;;;;;;5058832;28;20296;-82
2023/01/20 01:27:10;;;;;;;0.10;0.10;;;-0.50;99.90;;;;;;5059620;28;20741;-81
2023/01/20 01:29:35;;;;;;;0.10;0.10;;;-0.60;99.90;;;;;;5060717;28;20212;-81
2023/01/20 01:32:01;;;;;;;0.00;0.00;;;-0.60;99.90;;;;;;5062241;28;20175;-81
2023/01/20 01:34:26;;;;;;;0.03;0.03;;;-0.60;99.90;;;;;;5060067;28;20654;-81
2023/01/20 01:36:52;;;;;;;0.00;0.00;;;-0.60;99.90;;;;;;5061146;28;20201;-82
2023/01/20 01:39:18;;;;;;;0.10;0.10;;;-0.50;99.90;;;;;;5061262;28;20215;-81
2023/01/20 01:41:43;;;;;;;0.10;0.10;;;-0.60;99.90;;;;;;5060462;28;20568;-82
2023/01/20 01:44:12;;;;;;;0.10;0.10;;;-0.60;99.90;;;;;;5069727;28;20241;-81
2023/01/20 01:46:39;;;;;;;0.03;0.03;;;-0.70;99.90;;;;;;5059103;28;20197;-80
2023/01/20 01:49:21;;;;;;;0.00;0.00;;;-0.70;99.90;;;;;;5061817;28;20221;-82
2023/01/20 01:51:54;;;;;;;0.00;0.00;;;-0.70;99.90;;;;;;5060982;28;20192;-81
2023/01/20 01:54:23;;;;;;;0.10;0.10;;;-0.70;99.90;;;;;;5059426;28;20191;-80
2023/01/20 01:56:50;;;;;;;0.10;0.10;;;-0.60;99.90;;;;;;5059887;28;20213;-81
2023/01/20 01:59:17;;;;;;;0.10;0.10;;;-0.60;99.90;;;;;;5056532;28;21094;-81
2023/01/20 02:01:47;;;;;;;0.10;0.10;;;-0.50;99.90;;;;;;5060249;28;20190;-81
2023/01/20 02:04:14;;;;;;;0.10;0.10;;;-0.50;99.90;;;;;;5063654;28;20201;-80
2023/01/20 02:06:44;;;;;;;0.10;0.10;;;-0.50;99.90;;;;;;5058735;28;20185;-81
2023/01/20 02:09:10;;;;;;;0.10;0.10;;;-0.50;99.90;;;;;;5063694;28;20205;-81
2023/01/20 02:11:40;;;;;;;0.10;0.10;;;-0.50;99.90;;;;;;5063231;28;20177;-81
2023/01/20 02:14:07;;;;;;;0.10;0.10;;;-0.50;99.90;;;;;;5064716;28;20169;-82
2023/01/20 02:16:47;;;;;;;0.00;0.00;;;-0.70;99.90;;;;;;5062310;28;20188;-81
2023/01/20 02:19:30;;;;;;;0.10;0.10;;;-0.80;99.90;;;;;;5063367;28;20177;-81
2023/01/20 02:22:11;;;;;;;0.07;0.07;;;-0.80;99.90;;;;;;5060999;28;20191;-81
2023/01/20 02:25:08;;;;;;;0.10;0.10;;;-0.70;99.90;;;;;;5065074;28;20169;-81
2023/01/20 02:27:58;;;;;;;0.10;0.10;;;-0.60;99.90;;;;;;5063300;28;20211;-81
2023/01/20 02:30:33;;;;;;;0.00;0.00;;;-0.50;99.90;;;;;;5063360;28;20208;-81
2023/01/20 02:33:20;;;;;;;0.10;0.10;;;-0.50;99.90;;;;;;5065322;28;20174;-81
2023/01/20 02:36:08;;;;;;;0.10;0.10;;;-0.50;99.90;;;;;;5062411;28;20219;-80
2023/01/20 02:38:52;;;;;;;0.00;0.00;;;-0.60;99.90;;;;;;5064137;28;20283;-81
2023/01/20 02:41:31;;;;;;;0.10;0.10;;;-0.70;99.90;;;;;;5066078;28;20666;-80
2023/01/20 02:44:06;;;;;;;0.10;0.10;;;-0.70;99.90;;;;;;5067027;28;21016;-81
2023/01/20 02:46:37;;;;;;;0.10;0.10;;;-0.50;99.90;;;;;;5068549;28;20173;-80
2023/01/20 02:49:14;;;;;;;0.10;0.10;;;-0.30;99.90;;;;;;5067392;28;20177;-80
2023/01/20 02:52:11;;;;;;;0.10;0.10;;;-0.20;99.90;;;;;;5068099;28;20181;-80
2023/01/20 02:54:40;;;;;;;0.10;0.10;;;-0.10;99.90;;;;;;5061226;28;21422;-80
2023/01/20 02:57:10;;;;;;;0.00;0.00;;;0.00;99.90;;;;;;5065523;28;20201;-79
2023/01/20 02:59:41;;;;;;;0.10;0.10;;;0.00;99.90;;;;;;5063736;28;20202;-80
2023/01/20 03:02:16;;;;;;;0.10;0.10;;;0.00;99.90;;;;;;5066619;28;20197;-80
2023/01/20 03:04:50;;;;;;;0.10;0.10;;;0.00;99.90;;;;;;5064667;28;20193;-80
2023/01/20 03:07:18;;;;;;;0.10;0.10;;;0.10;99.90;;;;;;5068233;28;20693;-81
2023/01/20 03:09:48;;;;;;;0.10;0.10;;;0.20;99.90;;;;;;5074766;28;20208;-80
2023/01/20 03:12:21;;;;;;;0.10;0.10;;;0.20;99.90;;;;;;5063200;28;20181;-80
2023/01/20 03:14:48;;;;;;;0.10;0.10;;;0.10;99.90;;;;;;5065183;28;20227;-81
2023/01/20 03:17:14;;;;;;;0.10;0.10;;;0.30;99.90;;;;;;5065273;28;20209;-80
2023/01/20 03:19:39;;;;;;;0.10;0.10;;;0.30;99.90;;;;;;5065912;28;20204;-81
2023/01/20 03:22:05;;;;;;;0.10;0.10;;;0.10;99.90;;;;;;5065982;28;20629;-80
2023/01/20 03:24:33;;;;;;;0.10;0.10;;;0.10;99.90;;;;;;5063874;28;20194;-80
2023/01/20 03:26:59;;;;;;;0.10;0.10;;;0.20;99.90;;;;;;5067481;28;20214;-80
2023/01/20 03:29:24;;;;;;;0.10;0.10;;;-0.10;99.90;;;;;;5067488;28;20276;-80
2023/01/20 03:31:55;;;;;;;0.10;0.10;;;-0.10;99.90;;;;;;5077208;28;20189;-80
2023/01/20 03:34:23;;;;;;;0.10;0.10;;;-0.20;99.90;;;;;;5066755;28;20249;-80
2023/01/20 03:36:50;;;;;;;0.10;0.10;;;-0.20;99.90;;;;;;5066621;28;20209;-80
2023/01/20 03:39:17;;;;;;;0.10;0.10;;;-0.10;99.90;;;;;;5068132;28;20194;-80
2023/01/20 03:41:53;;;;;;;0.00;0.00;;;0.10;99.90;;;;;;5067775;28;20185;-80
2023/01/20 03:44:43;;;;;;;0.10;0.10;;;0.20;99.90;;;;;;5075728;28;20195;-80
2023/01/20 03:47:27;;;;;;;0.10;0.10;;;0.10;99.90;;;;;;5067083;28;20209;-80
2023/01/20 03:50:02;;;;;;;0.10;0.10;;;0.00;99.90;;;;;;5068867;28;20200;-80
2023/01/20 03:52:30;;;;;;;0.07;0.07;;;-0.10;99.90;;;;;;5068322;28;20204;-80
2023/01/20 03:55:01;;;;;;;0.10;0.10;;;0.10;99.90;;;;;;5068121;28;20265;-80
2023/01/20 03:57:42;;;;;;;0.00;0.00;;;0.20;99.90;;;;;;5067803;28;20241;-80
2023/01/20 04:00:09;;;;;;;0.10;0.10;;;0.40;99.90;;;;;;5074449;28;20207;-81
2023/01/20 04:02:36;;;;;;;0.10;0.10;;;0.20;99.90;;;;;;5062403;28;20195;-80
2023/01/20 04:05:03;;;;;;;0.00;0.00;;;0.40;99.90;;;;;;5066417;28;20193;-80
2023/01/20 04:07:30;;;;;;;0.10;0.10;;;0.50;99.90;;;;;;5063493;28;20221;-80
2023/01/20 04:10:01;;;;;;;0.10;0.10;;;0.60;99.90;;;;;;5065278;28;20233;-80
2023/01/20 04:12:27;;;;;;;0.10;0.10;;;0.70;99.90;;;;;;5066269;28;20204;-80
2023/01/20 04:14:53;;;;;;;0.10;0.10;;;0.70;99.90;;;;;;5066793;28;20187;-80
2023/01/20 04:17:19;;;;;;;0.10;0.10;;;0.80;99.90;;;;;;5066268;28;20295;-80
2023/01/20 04:19:44;;;;;;;0.07;0.07;;;0.80;99.90;;;;;;5066408;28;20210;-81
2023/01/20 04:22:24;;;;;;;0.10;0.10;;;0.70;99.90;;;;;;5064299;28;20302;-80
2023/01/20 04:24:52;;;;;;;0.00;0.00;;;0.80;99.90;;;;;;5064290;28;20195;-80
2023/01/20 04:27:17;;;;;;;0.10;0.10;;;0.90;99.90;;;;;;5064024;28;20209;-80
2023/01/20 04:29:43;;;;;;;0.00;0.00;;;0.90;99.90;;;;;;5062744;28;20209;-81
2023/01/20 04:32:10;;;;;;;0.10;0.10;;;1.00;99.90;;;;;;5065489;28;20189;-81
2023/01/20 04:34:36;;;;;;;0.00;0.00;;;1.10;99.90;;;;;;5063770;28;20193;-81
2023/01/20 04:37:01;;;;;;;0.10;0.10;;;1.20;99.90;;;;;;5065378;28;20294;-81
2023/01/20 04:39:27;;;;;;;0.10;0.10;;;1.20;99.90;;;;;;5064752;28;20189;-81
2023/01/20 04:41:52;;;;;;;0.10;0.10;;;1.00;99.90;;;;;;5064791;28;20189;-80
2023/01/20 04:44:18;;;;;;;0.10;0.10;;;0.80;99.90;;;;;;5064868;28;20194;-81
2023/01/20 04:46:46;;;;;;;0.03;0.03;;;0.90;99.90;;;;;;5064300;28;20777;-81
2023/01/20 04:49:12;;;;;;;0.00;0.00;;;0.90;99.90;;;;;;5064125;28;20215;-81
2023/01/20 04:51:37;;;;;;;0.10;0.10;;;1.00;99.90;;;;;;5063139;28;20191;-81
2023/01/20 04:54:03;;;;;;;0.10;0.10;;;1.10;99.90;;;;;;5065942;28;20244;-81
2023/01/20 04:56:29;;;;;;;0.10;0.10;;;1.10;99.90;;;;;;5062933;28;20195;-81
2023/01/20 04:58:54;;;;;;;0.10;0.10;;;1.00;99.90;;;;;;5065754;28;20193;-81
2023/01/20 05:01:20;;;;;;;0.10;0.10;;;0.80;99.90;;;;;;5058462;28;20268;-80
2023/01/20 05:03:46;;;;;;;0.10;0.10;;;0.60;99.90;;;;;;5062045;28;20182;-80
2023/01/20 05:06:12;;;;;;;0.10;0.10;;;0.70;99.90;;;;;;5062556;28;20212;-80
2023/01/20 05:08:38;;;;;;;0.00;0.00;;;0.80;99.90;;;;;;5065011;28;20210;-81
2023/01/20 05:11:04;;;;;;;0.10;0.10;;;0.80;99.90;;;;;;5065088;28;20222;-81
2023/01/20 05:13:29;;;;;;;0.10;0.10;;;0.80;99.90;;;;;;5065500;28;20241;-80
2023/01/20 05:15:55;;;;;;;0.10;0.10;;;0.90;99.90;;;;;;5065263;28;20224;-80
2023/01/20 05:18:20;;;;;;;0.10;0.10;;;0.90;99.90;;;;;;5063983;28;21279;-80
2023/01/20 05:20:47;;;;;;;0.10;0.10;;;1.00;99.90;;;;;;5063142;28;20187;-80
2023/01/20 05:23:13;;;;;;;0.10;0.10;;;1.00;99.90;;;;;;5065082;28;20255;-81
2023/01/20 05:25:39;;;;;;;0.00;0.00;;;0.80;99.90;;;;;;5063311;28;20191;-81
2023/01/20 05:28:04;;;;;;;0.10;0.10;;;1.00;99.90;;;;;;5064017;28;20214;-81
2023/01/20 05:30:30;;;;;;;0.10;0.10;;;1.00;99.90;;;;;;5062022;28;20216;-81
2023/01/20 05:32:56;;;;;;;0.10;0.10;;;0.80;99.90;;;;;;5065836;28;21081;-81
2023/01/20 05:35:21;;;;;;;0.00;0.00;;;0.70;99.90;;;;;;5060964;28;20885;-81
2023/01/20 05:37:47;;;;;;;0.10;0.10;;;0.80;99.90;;;;;;5059941;28;20737;-81
2023/01/20 05:40:12;;;;;;;0.37;0.37;;;0.90;99.90;;;;;;5062962;28;20210;-81
2023/01/20 05:42:38;;;;;;;0.00;0.00;;;0.70;99.90;;;;;;5063328;28;20219;-81
2023/01/20 05:45:04;;;;;;;0.10;0.10;;;0.70;99.90;;;;;;5057608;28;20274;-80
2023/01/20 05:47:30;;;;;;;0.10;0.10;;;0.90;99.90;;;;;;5065450;28;20731;-81
2023/01/20 05:49:55;;;;;;;0.10;0.10;;;1.10;99.90;;;;;;5063782;28;20228;-82
2023/01/20 05:52:21;;;;;;;0.10;0.10;;;1.00;99.90;;;;;;5064588;28;20201;-82
2023/01/20 05:54:46;;;;;;;0.10;0.10;;;1.00;99.90;;;;;;5066359;28;20193;-80
2023/01/20 05:57:16;;;;;;;0.10;0.10;;;1.00;99.90;;;;;;5066184;28;20206;-81
2023/01/20 05:59:43;;;;;;;0.10;0.10;;;1.10;99.90;;;;;;5064122;28;20206;-81
2023/01/20 06:02:10;;;;;;;0.10;0.10;;;1.10;99.90;;;;;;5063738;28;20222;-80
2023/01/20 06:04:35;;;;;;;0.00;0.00;;;1.00;99.90;;;;;;5064964;28;20201;-81
2023/01/20 06:07:01;;;;;;;0.10;0.10;;;0.80;99.90;;;;;;5065146;28;20308;-81
2023/01/20 06:09:26;;;;;;;0.10;0.10;;;1.00;99.90;;;;;;5062784;28;20710;-81
2023/01/20 06:11:52;;;;;;;0.10;0.10;;;1.10;99.90;;;;;;5066112;28;20268;-82
2023/01/20 06:14:17;;;;;;;0.10;0.10;;;1.10;99.90;;;;;;5060924;28;20713;-83
2023/01/20 06:16:43;;;;;;;0.10;0.10;;;0.90;99.90;;;;;;5063151;28;20187;-82
2023/01/20 06:19:08;;;;;;;0.10;0.10;;;1.00;99.90;;;;;;5062019;28;20175;-82
2023/01/20 06:21:34;;;;;;;0.10;0.10;;;1.10;99.90;;;;;;5059461;28;20277;-83
2023/01/20 06:23:59;;;;;;;0.70;0.70;;;1.10;99.90;;;;;;5060565;28;20189;-81
2023/01/20 06:26:25;;;;;;;0.10;0.10;;;1.10;99.90;;;;;;5054003;28;20236;-82
2023/01/20 06:28:50;;;;;;;0.10;0.10;;;1.20;99.90;;;;;;5063881;28;20235;-82
2023/01/20 06:31:16;;;;;;;0.10;0.10;;;1.30;99.90;;;;;;5063009;28;20220;-81
2023/01/20 06:33:42;;;;;;;0.10;0.10;;;1.40;99.90;;;;;;5060514;28;20185;-81
2023/01/20 06:36:12;;;;;;;0.10;0.10;;;1.50;99.90;;;;;;5060247;28;20178;-82
2023/01/20 06:38:38;;;;;;;0.10;0.10;;;1.50;99.90;;;;;;5063809;28;20294;-81
2023/01/20 06:41:09;;;;;;;0.10;0.10;;;1.50;99.90;;;;;;5064347;28;20653;-82
2023/01/20 06:43:38;;;;;;;0.10;0.10;;;1.60;99.90;;;;;;5061138;28;20194;-81
2023/01/20 06:46:06;;;;;;;0.10;0.10;;;1.60;99.90;;;;;;5060473;28;20274;-80
2023/01/20 06:48:32;;;;;;;0.10;0.10;;;1.60;99.90;;;;;;5064570;28;20303;-80
2023/01/20 06:51:06;;;;;;;0.10;0.10;;;1.60;99.90;;;;;;5070069;28;20227;-81
2023/01/20 06:53:32;;;;;;;0.10;0.10;;;1.60;99.90;;;;;;5069944;28;20273;-81
2023/01/20 06:55:59;;;;;;;0.10;0.10;;;1.60;99.90;;;;;;5068323;28;20222;-81
2023/01/20 06:58:26;;;;;;;0.10;0.10;;;1.60;99.90;;;;;;5071035;28;20552;-83
2023/01/20 07:00:52;;;;;;;0.10;0.10;;;1.60;99.90;;;;;;5070243;28;20197;-83
2023/01/20 07:03:18;;;;;;;0.10;0.10;;;1.50;99.90;;;;;;5067051;28;20199;-82
2023/01/20 07:05:49;;;;;;;0.10;0.10;;;1.50;99.90;;;;;;5066548;28;20239;-82
2023/01/20 07:08:15;;;;;;;0.10;0.10;;;1.50;99.90;;;;;;5068376;28;20234;-82
2023/01/20 07:10:40;;;;;;;0.00;0.00;;;1.60;99.90;;;;;;5070650;28;20885;-81
2023/01/20 07:13:05;;;;;;;0.00;0.00;;;1.60;99.90;;;;;;5070751;28;20201;-82
2023/01/20 07:15:31;;;;;;;0.10;0.10;;;1.70;99.90;;;;;;5070285;28;20221;-82
2023/01/20 07:17:57;;;;;;;0.00;0.00;;;1.70;99.90;;;;;;5068887;28;20217;-82
2023/01/20 07:20:22;;;;;;;0.10;0.10;;;1.60;99.90;;;;;;5068354;28;20207;-82
2023/01/20 07:22:48;;;;;;;0.10;0.10;;;1.40;99.90;;;;;;5067448;28;20394;-81
2023/01/20 07:25:13;;;;;;;0.10;0.10;;;1.50;99.90;;;;;;5071155;28;20202;-82
2023/01/20 07:27:39;;;;;;;0.10;0.10;;;1.50;99.90;;;;;;5067877;28;20207;-82
2023/01/20 07:30:05;;;;;;;0.10;0.10;;;1.50;99.90;;;;;;5065881;28;20221;-82
2023/01/20 07:32:31;;;;;;;0.10;0.10;;;1.60;99.90;;;;;;5066821;28;20194;-81
2023/01/20 07:34:56;;;;;;;0.10;0.10;;;1.60;99.90;;;;;;5067055;28;20184;-82
2023/01/20 07:37:22;;;;;;;0.10;0.10;;;1.70;99.90;;;;;;5068179;28;20211;-82
2023/01/20 07:39:47;;;;;;;0.10;0.10;;;1.70;99.90;;;;;;5069048;28;20187;-81
2023/01/20 07:42:13;;;;;;;0.10;0.10;;;1.50;99.90;;;;;;5064034;28;20196;-82
2023/01/20 07:44:38;;;;;;;0.10;0.10;;;1.50;99.90;;;;;;5069400;28;20210;-82
2023/01/20 07:47:04;;;;;;;0.10;0.10;;;1.30;99.90;;;;;;5067078;28;20215;-82
2023/01/20 07:49:29;;;;;;;0.00;0.00;;;1.50;99.90;;;;;;5068634;28;20211;-81
2023/01/20 07:51:55;;;;;;;0.10;0.10;;;1.60;99.90;;;;;;5068649;28;20581;-82
2023/01/20 07:54:20;;;;;;;0.10;0.10;;;1.70;99.90;;;;;;5068828;28;20186;-82
2023/01/20 07:56:46;;;;;;;0.10;0.10;;;1.70;99.90;;;;;;5066571;28;20253;-83
2023/01/20 07:59:12;;;;;;;0.10;0.10;;;1.60;99.90;;;;;;5066907;28;20195;-81
2023/01/20 08:01:37;;;;;;;0.10;0.10;;;1.60;99.90;;;;;;5069474;28;20203;-82
2023/01/20 08:04:03;;;;;;;0.00;0.00;;;1.50;99.90;;;;;;5067806;28;20193;-82
2023/01/20 08:06:29;;;;;;;0.10;0.10;;;1.50;99.90;;;;;;5067035;28;20191;-82
2023/01/20 08:08:55;;;;;;;0.10;0.10;;;1.40;99.90;;;;;;5063808;28;20182;-82
2023/01/20 08:11:21;;;;;;;0.10;0.10;;;1.30;99.90;;;;;;5065000;28;20739;-81
2023/01/20 08:13:48;;;;;;;0.10;0.10;;;1.40;99.90;;;;;;5063105;28;20183;-82
2023/01/20 08:16:16;;;;;;;0.10;0.10;;;1.40;99.90;;;;;;5064298;28;20549;-82
2023/01/20 08:18:42;;;;;;;0.10;0.10;;;1.50;99.90;;;;;;5063469;28;20654;-81
2023/01/20 08:21:22;;;;;;;0.10;0.10;;;1.50;99.90;;;;;;5066934;28;20209;-82
2023/01/20 08:23:48;;;;;;;0.10;0.10;;;1.60;99.90;;;;;;5067725;28;20187;-82
2023/01/20 08:26:14;;;;;;;0.10;0.10;;;1.60;99.90;;;;;;5067604;28;20276;-82
2023/01/20 08:28:40;;;;;;;0.10;0.10;;;1.70;99.90;;;;;;5070485;28;20630;-82
2023/01/20 08:31:07;;;;;;;0.10;0.10;;;1.80;99.90;;;;;;5068455;28;20206;-81
2023/01/20 08:33:32;;;;;;;0.10;0.10;;;1.90;99.90;;;;;;5068537;28;20184;-80
2023/01/20 08:36:13;;;;;;;0.10;0.10;;;2.10;99.90;;;;;;5066781;28;20329;-81
2023/01/20 08:38:39;;;;;;;0.10;0.10;;;2.40;99.90;;;;;;5068150;28;20194;-81
2023/01/20 08:41:11;;;;;;;0.10;0.10;;;2.40;99.90;;;;;;5068871;28;21237;-81
2023/01/20 08:43:36;;;;;;;0.10;0.10;;;2.20;99.90;;;;;;5067372;28;20196;-82
2023/01/20 08:46:05;;;;;;;0.10;0.10;;;2.30;99.90;;;;;;5069142;28;20182;-82
2023/01/20 08:48:31;;;;;;;0.10;0.10;;;2.40;99.90;;;;;;5066448;28;20201;-82
2023/01/20 08:50:56;;;;;;;0.10;0.10;;;2.50;99.90;;;;;;5068065;28;20212;-81
2023/01/20 08:53:22;;;;;;;0.10;0.10;;;2.70;99.90;;;;;;5067944;28;20675;-81
2023/01/20 08:55:56;;;;;;;0.10;0.10;;;2.80;99.90;;;;;;5066970;28;20229;-81
2023/01/20 08:58:21;;;;;;;0.10;0.10;;;3.00;99.90;;;;;;5066852;28;20210;-82
2023/01/20 09:00:47;;;;;;;0.10;0.10;;;3.10;99.90;;;;;;5067394;28;20240;-82
2023/01/20 09:03:12;;;;;;;0.10;0.10;;;3.20;99.90;;;;;;5066677;28;20186;-82
2023/01/20 09:05:38;;;;;;;0.10;0.10;;;3.30;99.90;;;;;;5065556;28;20252;-82
2023/01/20 09:08:03;;;;;;;0.10;0.10;;;3.20;99.90;;;;;;5063765;28;20293;-81
2023/01/20 09:10:31;;;;;;;0.00;0.00;;;3.10;99.90;;;;;;5067369;28;20329;-82
2023/01/20 09:12:57;;;;;;;0.10;0.10;;;3.00;99.90;;;;;;5068106;28;20189;-82
2023/01/20 09:15:22;;;;;;;0.00;0.00;;;2.70;99.90;;;;;;5065526;28;20187;-82
2023/01/20 09:17:48;;;;;;;0.10;0.10;;;2.70;99.90;;;;;;5065456;28;20208;-82
2023/01/20 09:20:14;;;;;;;0.00;0.00;;;2.70;99.90;;;;;;5066018;28;20192;-82
2023/01/20 09:22:39;;;;;;;0.10;0.10;;;2.70;99.90;;;;;;5065572;28;20191;-82
2023/01/20 09:25:07;;;;;;;0.10;0.10;;;2.60;99.90;;;;;;5067606;28;20202;-81
2023/01/20 09:27:32;;;;;;;0.10;0.10;;;2.70;99.90;;;;;;5067008;28;20206;-82
2023/01/20 09:29:58;;;;;;;0.10;0.10;;;2.60;99.90;;;;;;5068438;28;21081;-82
2023/01/20 09:32:23;;;;;;;0.10;0.10;;;2.80;99.90;;;;;;5068357;28;20270;-82
2023/01/20 09:34:49;;;;;;;0.00;0.00;;;2.90;99.90;;;;;;5064263;28;20377;-81
2023/01/20 09:47:18;;;;;;;0.10;0.10;;;3.10;99.90;;;;;;5056276;28;20198;-82
2023/01/20 09:55:27;;;;;;;0.10;0.10;;;2.90;99.90;;;;;;5066345;28;20209;-82
2023/01/20 09:58:03;;;;;;;0.10;0.10;;;3.20;99.90;;;;;;5062396;28;20203;-82
2023/01/20 10:00:32;;;;;;;0.10;0.10;;;3.20;99.90;;;;;;5063590;28;20202;-82
2023/01/20 10:03:08;;;;;;;0.07;0.07;;;3.00;99.90;;;;;;5062699;28;20298;-82
2023/01/20 10:05:37;;;;;;;0.10;0.10;;;3.20;99.90;;;;;;5061031;28;20252;-81
2023/01/20 10:08:19;;;;;;;0.00;0.00;;;3.30;99.90;;;;;;5063825;28;20265;-81
2023/01/20 10:10:59;;;;;;;0.10;0.10;;;3.20;99.90;;;;;;5062013;28;20908;-83
2023/01/20 10:13:36;;;;;;;0.10;0.10;;;3.40;99.90;;;;;;5065652;28;20232;-83
2023/01/20 10:16:06;;;;;;;1.03;1.03;;;3.60;99.90;;;;;;5062802;28;20180;-82
2023/01/20 10:19:00;;;;;;;0.10;0.10;;;3.80;99.90;;;;;;5063729;28;20272;-81
2023/01/20 10:22:01;;;;;;;0.10;0.10;;;4.00;99.90;;;;;;5062620;28;20196;-82
2023/01/20 10:24:51;;;;;;;0.00;0.00;;;4.20;99.90;;;;;;5047774;28;20210;-81
2023/01/20 10:27:17;;;;;;;0.00;0.00;;;4.50;99.90;;;;;;5067218;28;20218;-82
2023/01/20 10:29:48;;;;;;;0.10;0.10;;;5.50;99.90;;;;;;5066101;28;20211;-83
2023/01/20 10:32:32;;;;;;;0.00;0.00;;;6.10;99.90;;;;;;5067557;28;20190;-81
2023/01/20 10:35:02;;;;;;;0.10;0.10;;;6.50;99.90;;;;;;5069516;28;20176;-83
2023/01/20 10:37:30;;;;;;;0.00;0.00;;;6.80;99.90;;;;;;5068360;28;20705;-83
2023/01/20 10:40:04;;;;;;;0.10;0.10;;;7.00;99.90;;;;;;5068545;28;20677;-81
2023/01/20 10:42:29;;;;;;;0.10;0.10;;;6.90;99.90;;;;;;5067363;28;20180;-81
2023/01/20 10:44:57;;;;;;;0.00;0.00;;;7.20;99.90;;;;;;5068092;28;20197;-82
2023/01/20 10:47:45;;;;;;;0.10;0.10;;;7.20;99.90;;;;;;5069030;28;20632;-82
2023/01/20 10:50:26;;;;;;;0.10;0.10;;;6.50;99.90;;;;;;5079080;28;20250;-80
2023/01/20 10:53:20;;;;;;;0.10;0.10;;;5.90;99.90;;;;;;5066467;28;20195;-81
2023/01/20 10:56:10;;;;;;;0.00;0.00;;;5.50;99.90;;;;;;5068741;28;20279;-80
2023/01/20 10:58:39;;;;;;;0.10;0.10;;;5.20;99.90;;;;;;5066477;28;20278;-81
2023/01/20 11:01:10;;;;;;;0.10;0.10;;;5.00;99.90;;;;;;5066274;28;20203;-81
2023/01/20 11:03:40;;;;;;;0.10;0.10;;;4.90;99.90;;;;;;5065039;28;20219;-81
2023/01/20 11:06:06;;;;;;;0.10;0.10;;;5.00;99.90;;;;;;5066965;28;20638;-81
2023/01/20 11:08:32;;;;;;;0.10;0.10;;;5.00;99.90;;;;;;5068008;28;20274;-82
2023/01/20 11:11:10;;;;;;;0.10;0.10;;;5.10;99.90;;;;;;5063457;28;20216;-82
2023/01/20 11:13:36;;;;;;;0.07;0.07;;;5.20;99.90;;;;;;5064501;28;20181;-81
2023/01/20 11:16:10;;;;;;;0.10;0.10;;;5.20;99.90;;;;;;5066943;28;20706;-81
2023/01/20 11:18:35;;;;;;;0.10;0.10;;;5.00;99.90;;;;;;5067944;28;20209;-81
2023/01/20 11:21:07;;;;;;;0.00;0.00;;;4.80;99.90;;;;;;5066567;28;20192;-82
2023/01/20 11:23:46;;;;;;;0.00;0.00;;;4.40;99.90;;;;;;5062242;28;20189;-82
2023/01/20 11:26:31;;;;;;;0.10;0.10;;;4.40;99.90;;;;;;5065235;28;20275;-82
2023/01/20 11:29:07;;;;;;;0.10;0.10;;;4.70;99.90;;;;;;5069041;28;20206;-82
2023/01/20 11:31:46;;;;;;;0.10;0.10;;;4.70;99.90;;;;;;5062407;28;21071;-80
2023/01/20 11:34:35;;;;;;;0.10;0.10;;;4.50;99.90;;;;;;5063292;28;20180;-80
2023/01/20 11:37:03;;;;;;;0.10;0.10;;;4.30;99.90;;;;;;5066216;28;20204;-80
2023/01/20 11:39:53;;;;;;;0.10;0.10;;;3.80;99.90;;;;;;5067879;28;20193;-80
2023/01/20 11:42:25;;;;;;;0.10;0.10;;;3.90;99.90;;;;;;5072885;28;20754;-80
2023/01/20 11:44:51;;;;;;;0.10;0.10;;;4.20;99.90;;;;;;5064527;28;20178;-79
2023/01/20 11:47:32;;;;;;;0.00;0.00;;;3.90;99.90;;;;;;5068248;28;20205;-80
2023/01/20 11:50:18;;;;;;;0.10;0.10;;;4.10;99.90;;;;;;5062712;28;20939;-80
2023/01/20 11:52:46;;;;;;;0.10;0.10;;;3.80;99.90;;;;;;5065636;28;20199;-80
2023/01/20 11:55:11;;;;;;;0.10;0.10;;;4.30;99.90;;;;;;5063755;28;20236;-80
2023/01/20 11:57:51;;;;;;;0.10;0.10;;;4.20;99.90;;;;;;5064110;28;20209;-80
2023/01/20 12:00:35;;;;;;;0.10;0.10;;;4.00;99.90;;;;;;5067021;28;20204;-80
2023/01/20 12:03:15;;;;;;;0.10;0.10;;;3.80;99.90;;;;;;5064315;28;20181;-80
2023/01/20 12:06:02;;;;;;;0.10;0.10;;;3.80;99.90;;;;;;5064294;28;20276;-80
2023/01/20 12:08:37;;;;;;;0.10;0.10;;;4.00;99.90;;;;;;5064617;28;20217;-80
2023/01/20 12:11:06;;;;;;;0.10;0.10;;;4.30;99.90;;;;;;5065921;28;20208;-79
2023/01/20 12:14:18;;;;;;;0.10;0.10;;;4.60;99.90;;;;;;5066048;28;20195;-82
2023/01/20 12:16:26;;;;;;;0.10;0.10;;;4.90;99.90;;;;;;5068901;28;20213;-81
2023/01/20 12:18:56;;;;;;;0.10;0.10;;;5.10;99.90;;;;;;5064484;28;20306;-82
2023/01/20 12:21:28;;;;;;;0.10;0.10;;;4.90;99.90;;;;;;5066015;28;20188;-82
2023/01/20 12:24:22;;;;;;;0.10;0.10;;;4.90;99.90;;;;;;5062361;28;20771;-82
2023/01/20 12:26:48;;;;;;;0.10;0.10;;;5.10;99.90;;;;;;5060714;28;21132;-82
2023/01/20 12:29:35;;;;;;;0.10;0.10;;;5.10;99.90;;;;;;5066332;28;20200;-79
2023/01/20 12:32:01;;;;;;;0.10;0.10;;;5.20;99.90;;;;;;5062812;28;20191;-80
2023/01/20 12:34:28;;;;;;;0.10;0.10;;;5.20;99.90;;;;;;5065569;28;20217;-78
2023/01/20 12:37:00;;;;;;;0.10;0.10;;;5.30;99.90;;;;;;5064412;28;20594;-79
2023/01/20 12:39:49;;;;;;;0.00;0.00;;;5.30;99.90;;;;;;5065070;28;20205;-79
2023/01/20 12:42:36;;;;;;;0.10;0.10;;;5.40;99.90;;;;;;5064383;28;20181;-79
2023/01/20 12:45:18;;;;;;;0.10;0.10;;;5.00;99.90;;;;;;5064365;28;20192;-79
2023/01/20 12:47:59;;;;;;;0.10;0.10;;;5.00;99.90;;;;;;5066054;28;20211;-79
2023/01/20 12:50:42;;;;;;;0.10;0.10;;;5.10;99.90;;;;;;5064666;28;20512;-80
2023/01/20 12:53:22;;;;;;;0.00;0.00;;;5.10;99.90;;;;;;5065398;28;20190;-79
2023/01/20 12:56:16;;;;;;;0.10;0.10;;;4.90;99.90;;;;;;5064753;28;20178;-79
2023/01/20 12:59:15;;;;;;;0.10;0.10;;;4.90;99.90;;;;;;5065014;28;20210;-79
2023/01/20 13:02:01;;;;;;;0.10;0.10;;;4.80;99.90;;;;;;5064405;28;20178;-79
2023/01/20 13:04:43;;;;;;;0.10;0.10;;;4.90;99.90;;;;;;5061631;28;20181;-80
2023/01/20 13:07:17;;;;;;;0.10;0.10;;;4.90;99.90;;;;;;5062867;28;20253;-79
2023/01/20 13:09:51;;;;;;;0.10;0.10;;;4.80;99.90;;;;;;5059769;28;20196;-79
2023/01/20 13:12:54;;;;;;;0.10;0.10;;;4.80;99.90;;;;;;5059347;28;20181;-79
2023/01/20 13:15:23;;;;;;;0.10;0.10;;;4.70;99.90;;;;;;5058879;28;20869;-79
2023/01/20 13:18:14;;;;;;;0.10;0.10;;;4.70;99.90;;;;;;5059089;28;20204;-79
2023/01/20 13:20:44;;;;;;;0.10;0.10;;;4.70;99.90;;;;;;5060547;28;20272;-79
2023/01/20 13:23:13;;;;;;;0.10;0.10;;;4.80;99.90;;;;;;5058576;28;20189;-79
2023/01/20 13:25:40;;;;;;;0.10;0.10;;;4.70;99.90;;;;;;5060754;28;20228;-79
2023/01/20 13:28:14;;;;;;;0.00;0.00;;;4.70;99.90;;;;;;5058664;28;20750;-79